Terminal Aerodrome Forecast
Issued by NWS Sioux Falls, SD

Home | Current Version | Previous Version | Graphics & Text | Print | Product List | Glossary On
Versions: 1 2 3 4 5 6 7 8 9 10 11 12 13 14 15 16 17 18 19 20 21 22 23 24 25 26 27
755
FTUS43 KFSD 040606 RRA
TAFFSD
TAF
KFSD 040606Z 0406/0506 17013KT 5SM BR OVC006
     FM041200 22007KT 5SM BR OVC008
     FM041500 26007KT P6SM SCT015 SCT080
     FM041600 26007KT P6SM SCT080
     FM041900 28010KT P6SM BKN250=

USA.gov is the U.S. government's official web portal to all federal, state and local government web resources and services.